sensor_id;sensor_type;location;lat;lon;timestamp;temperature;humidity
37646;DHT22;23489;49.600;6.138;2023-01-16T00:01:10;4.70;99.90
37646;DHT22;23489;49.600;6.138;2023-01-16T00:03:36;4.70;99.90
37646;DHT22;23489;49.600;6.138;2023-01-16T00:06:01;4.70;99.90
37646;DHT22;23489;49.600;6.138;2023-01-16T00:08:27;4.70;99.90
37646;DHT22;23489;49.600;6.138;2023-01-16T00:10:53;4.70;99.90
37646;DHT22;23489;49.600;6.138;2023-01-16T00:13:18;4.70;99.90
37646;DHT22;23489;49.600;6.138;2023-01-16T00:15:46;4.70;99.90
37646;DHT22;23489;49.600;6.138;2023-01-16T00:18:12;4.60;99.90
37646;DHT22;23489;49.600;6.138;2023-01-16T00:20:37;4.70;99.90
37646;DHT22;23489;49.600;6.138;2023-01-16T00:23:03;4.70;99.90
37646;DHT22;23489;49.600;6.138;2023-01-16T00:25:29;4.60;99.90
37646;DHT22;23489;49.600;6.138;2023-01-16T00:27:54;4.70;99.90
37646;DHT22;23489;49.600;6.138;2023-01-16T00:30:20;4.70;99.90
37646;DHT22;23489;49.600;6.138;2023-01-16T00:32:46;4.70;99.90
37646;DHT22;23489;49.600;6.138;2023-01-16T00:35:11;4.60;99.90
37646;DHT22;23489;49.600;6.138;2023-01-16T00:37:37;4.60;99.90
37646;DHT22;23489;49.600;6.138;2023-01-16T00:40:03;4.60;99.90
37646;DHT22;23489;49.600;6.138;2023-01-16T00:42:29;4.50;99.90
37646;DHT22;23489;49.600;6.138;2023-01-16T00:44:54;4.50;99.90
37646;DHT22;23489;49.600;6.138;2023-01-16T00:47:20;4.50;99.90
37646;DHT22;23489;49.600;6.138;2023-01-16T00:49:46;4.50;99.90
37646;DHT22;23489;49.600;6.138;2023-01-16T00:52:11;4.50;99.90
37646;DHT22;23489;49.600;6.138;2023-01-16T00:54:37;4.50;99.90
37646;DHT22;23489;49.600;6.138;2023-01-16T00:57:03;4.50;99.90
37646;DHT22;23489;49.600;6.138;2023-01-16T00:59:28;4.60;99.90
37646;DHT22;23489;49.600;6.138;2023-01-16T01:01:54;4.60;99.90
37646;DHT22;23489;49.600;6.138;2023-01-16T01:04:19;4.60;99.90
37646;DHT22;23489;49.600;6.138;2023-01-16T01:06:45;4.60;99.90
37646;DHT22;23489;49.600;6.138;2023-01-16T01:09:11;4.60;99.90
37646;DHT22;23489;49.600;6.138;2023-01-16T01:11:36;4.60;99.90
37646;DHT22;23489;49.600;6.138;2023-01-16T01:14:02;4.70;99.90
37646;DHT22;23489;49.600;6.138;2023-01-16T01:16:28;4.70;99.90
37646;DHT22;23489;49.600;6.138;2023-01-16T01:18:53;4.70;99.90
37646;DHT22;23489;49.600;6.138;2023-01-16T01:21:19;4.70;99.90
37646;DHT22;23489;49.600;6.138;2023-01-16T01:23:44;4.70;99.90
37646;DHT22;23489;49.600;6.138;2023-01-16T01:26:16;4.70;99.90
37646;DHT22;23489;49.600;6.138;2023-01-16T01:28:42;4.70;99.90
37646;DHT22;23489;49.600;6.138;2023-01-16T01:31:10;4.70;99.90
37646;DHT22;23489;49.600;6.138;2023-01-16T01:33:37;4.70;99.90
37646;DHT22;23489;49.600;6.138;2023-01-16T01:36:03;4.70;99.90
37646;DHT22;23489;49.600;6.138;2023-01-16T01:38:28;4.70;99.90
37646;DHT22;23489;49.600;6.138;2023-01-16T01:40:54;4.70;99.90
37646;DHT22;23489;49.600;6.138;2023-01-16T01:43:20;4.70;99.90
37646;DHT22;23489;49.600;6.138;2023-01-16T01:45:49;4.70;99.90
37646;DHT22;23489;49.600;6.138;2023-01-16T01:48:26;4.70;99.90
37646;DHT22;23489;49.600;6.138;2023-01-16T01:51:10;4.60;99.90
37646;DHT22;23489;49.600;6.138;2023-01-16T01:53:53;4.60;99.90
37646;DHT22;23489;49.600;6.138;2023-01-16T01:56:25;4.60;99.90
37646;DHT22;23489;49.600;6.138;2023-01-16T01:58:56;4.60;99.90
37646;DHT22;23489;49.600;6.138;2023-01-16T02:01:24;4.60;99.90
37646;DHT22;23489;49.600;6.138;2023-01-16T02:04:01;4.60;99.90
37646;DHT22;23489;49.600;6.138;2023-01-16T02:06:43;4.60;99.90
37646;DHT22;23489;49.600;6.138;2023-01-16T02:09:10;4.50;99.90
37646;DHT22;23489;49.600;6.138;2023-01-16T02:11:45;4.50;99.90
37646;DHT22;23489;49.600;6.138;2023-01-16T02:14:16;4.50;99.90
37646;DHT22;23489;49.600;6.138;2023-01-16T02:16:42;4.50;99.90
37646;DHT22;23489;49.600;6.138;2023-01-16T02:23:25;4.50;99.90
37646;DHT22;23489;49.600;6.138;2023-01-16T02:28:24;4.50;99.90
37646;DHT22;23489;49.600;6.138;2023-01-16T02:36:30;4.30;99.90
37646;DHT22;23489;49.600;6.138;2023-01-16T02:41:40;4.30;99.90
37646;DHT22;23489;49.600;6.138;2023-01-16T02:44:49;4.30;99.90
37646;DHT22;23489;49.600;6.138;2023-01-16T02:55:54;4.30;99.90
37646;DHT22;23489;49.600;6.138;2023-01-16T02:58:24;4.30;99.90
37646;DHT22;23489;49.600;6.138;2023-01-16T03:00:56;4.30;99.90
37646;DHT22;23489;49.600;6.138;2023-01-16T03:14:41;4.30;99.90
37646;DHT22;23489;49.600;6.138;2023-01-16T03:17:25;4.40;99.90
37646;DHT22;23489;49.600;6.138;2023-01-16T03:23:15;4.40;99.90
37646;DHT22;23489;49.600;6.138;2023-01-16T03:25:53;4.40;99.90
37646;DHT22;23489;49.600;6.138;2023-01-16T03:31:17;4.30;99.90
37646;DHT22;23489;49.600;6.138;2023-01-16T03:34:04;4.30;99.90
37646;DHT22;23489;49.600;6.138;2023-01-16T03:36:47;4.30;99.90
37646;DHT22;23489;49.600;6.138;2023-01-16T03:39:18;4.30;99.90
37646;DHT22;23489;49.600;6.138;2023-01-16T03:41:47;4.20;99.90
37646;DHT22;23489;49.600;6.138;2023-01-16T03:44:23;4.30;99.90
37646;DHT22;23489;49.600;6.138;2023-01-16T03:46:52;4.20;99.90
37646;DHT22;23489;49.600;6.138;2023-01-16T03:49:20;4.20;99.90
37646;DHT22;23489;49.600;6.138;2023-01-16T03:51:50;4.20;99.90
37646;DHT22;23489;49.600;6.138;2023-01-16T03:54:42;4.20;99.90
37646;DHT22;23489;49.600;6.138;2023-01-16T03:57:12;4.20;99.90
37646;DHT22;23489;49.600;6.138;2023-01-16T03:59:41;4.20;99.90
37646;DHT22;23489;49.600;6.138;2023-01-16T04:02:30;4.20;99.90
37646;DHT22;23489;49.600;6.138;2023-01-16T04:05:15;4.20;99.90
37646;DHT22;23489;49.600;6.138;2023-01-16T04:10:50;4.10;99.90
37646;DHT22;23489;49.600;6.138;2023-01-16T04:13:25;4.00;99.90
37646;DHT22;23489;49.600;6.138;2023-01-16T04:15:54;4.00;99.90
37646;DHT22;23489;49.600;6.138;2023-01-16T04:18:22;4.00;99.90
37646;DHT22;23489;49.600;6.138;2023-01-16T04:20:50;3.90;99.90
37646;DHT22;23489;49.600;6.138;2023-01-16T04:23:16;3.90;99.90
37646;DHT22;23489;49.600;6.138;2023-01-16T04:25:44;3.90;99.90
37646;DHT22;23489;49.600;6.138;2023-01-16T04:28:10;3.90;99.90
37646;DHT22;23489;49.600;6.138;2023-01-16T04:30:35;3.90;99.90
37646;DHT22;23489;49.600;6.138;2023-01-16T04:33:03;3.90;99.90
37646;DHT22;23489;49.600;6.138;2023-01-16T04:35:29;3.90;99.90
37646;DHT22;23489;49.600;6.138;2023-01-16T04:37:54;3.90;99.90
37646;DHT22;23489;49.600;6.138;2023-01-16T04:40:20;3.90;99.90
37646;DHT22;23489;49.600;6.138;2023-01-16T04:42:45;3.90;99.90
37646;DHT22;23489;49.600;6.138;2023-01-16T04:45:11;3.90;99.90
37646;DHT22;23489;49.600;6.138;2023-01-16T04:47:37;3.90;99.90
37646;DHT22;23489;49.600;6.138;2023-01-16T04:50:03;3.90;99.90
37646;DHT22;23489;49.600;6.138;2023-01-16T04:52:28;3.90;99.90
37646;DHT22;23489;49.600;6.138;2023-01-16T04:54:54;3.90;99.90
37646;DHT22;23489;49.600;6.138;2023-01-16T04:57:19;3.90;99.90
37646;DHT22;23489;49.600;6.138;2023-01-16T04:59:45;3.90;99.90
37646;DHT22;23489;49.600;6.138;2023-01-16T05:02:11;3.80;99.90
37646;DHT22;23489;49.600;6.138;2023-01-16T05:04:36;3.80;99.90
37646;DHT22;23489;49.600;6.138;2023-01-16T05:07:02;3.80;99.90
37646;DHT22;23489;49.600;6.138;2023-01-16T05:09:27;3.80;99.90
37646;DHT22;23489;49.600;6.138;2023-01-16T05:11:53;3.80;99.90
37646;DHT22;23489;49.600;6.138;2023-01-16T05:14:19;3.70;99.90
37646;DHT22;23489;49.600;6.138;2023-01-16T05:16:44;3.70;99.90
37646;DHT22;23489;49.600;6.138;2023-01-16T05:19:10;3.70;99.90
37646;DHT22;23489;49.600;6.138;2023-01-16T05:21:36;3.70;99.90
37646;DHT22;23489;49.600;6.138;2023-01-16T05:24:02;3.70;99.90
37646;DHT22;23489;49.600;6.138;2023-01-16T05:26:27;3.70;99.90
37646;DHT22;23489;49.600;6.138;2023-01-16T05:28:53;3.70;99.90
37646;DHT22;23489;49.600;6.138;2023-01-16T05:31:19;3.70;99.90
37646;DHT22;23489;49.600;6.138;2023-01-16T05:33:45;3.70;99.90
37646;DHT22;23489;49.600;6.138;2023-01-16T05:36:10;3.70;99.90
37646;DHT22;23489;49.600;6.138;2023-01-16T05:38:36;3.70;99.90
37646;DHT22;23489;49.600;6.138;2023-01-16T05:41:02;3.80;99.90
37646;DHT22;23489;49.600;6.138;2023-01-16T05:43:27;3.70;99.90
37646;DHT22;23489;49.600;6.138;2023-01-16T05:45:53;3.80;99.90
37646;DHT22;23489;49.600;6.138;2023-01-16T05:48:19;3.80;99.90
37646;DHT22;23489;49.600;6.138;2023-01-16T05:50:44;3.80;99.90
37646;DHT22;23489;49.600;6.138;2023-01-16T05:53:11;3.80;99.90
37646;DHT22;23489;49.600;6.138;2023-01-16T05:55:45;3.80;99.90
37646;DHT22;23489;49.600;6.138;2023-01-16T05:58:12;3.80;99.90
37646;DHT22;23489;49.600;6.138;2023-01-16T06:00:39;3.80;99.90
37646;DHT22;23489;49.600;6.138;2023-01-16T06:03:05;3.80;99.90
37646;DHT22;23489;49.600;6.138;2023-01-16T06:05:31;3.80;99.90
37646;DHT22;23489;49.600;6.138;2023-01-16T06:07:57;3.80;99.90
37646;DHT22;23489;49.600;6.138;2023-01-16T06:10:23;3.70;99.90
37646;DHT22;23489;49.600;6.138;2023-01-16T06:12:49;3.70;99.90
37646;DHT22;23489;49.600;6.138;2023-01-16T06:15:15;3.60;99.90
37646;DHT22;23489;49.600;6.138;2023-01-16T06:17:41;3.60;99.90
37646;DHT22;23489;49.600;6.138;2023-01-16T06:20:07;3.50;99.90
37646;DHT22;23489;49.600;6.138;2023-01-16T06:22:33;3.30;99.90
37646;DHT22;23489;49.600;6.138;2023-01-16T06:24:59;3.20;99.90
37646;DHT22;23489;49.600;6.138;2023-01-16T06:27:24;3.20;99.90
37646;DHT22;23489;49.600;6.138;2023-01-16T06:29:50;3.10;99.90
37646;DHT22;23489;49.600;6.138;2023-01-16T06:32:16;2.90;99.90
37646;DHT22;23489;49.600;6.138;2023-01-16T06:34:42;2.90;99.90
37646;DHT22;23489;49.600;6.138;2023-01-16T06:37:08;2.80;99.90
37646;DHT22;23489;49.600;6.138;2023-01-16T06:39:34;2.70;99.90
37646;DHT22;23489;49.600;6.138;2023-01-16T06:42:00;2.70;99.90
37646;DHT22;23489;49.600;6.138;2023-01-16T06:44:26;2.60;99.90
37646;DHT22;23489;49.600;6.138;2023-01-16T06:46:51;2.60;99.90
37646;DHT22;23489;49.600;6.138;2023-01-16T06:49:17;2.60;99.90
37646;DHT22;23489;49.600;6.138;2023-01-16T06:51:43;2.60;99.90
37646;DHT22;23489;49.600;6.138;2023-01-16T06:54:09;2.60;99.90
37646;DHT22;23489;49.600;6.138;2023-01-16T06:56:35;2.60;99.90
37646;DHT22;23489;49.600;6.138;2023-01-16T06:59:01;2.50;99.90
37646;DHT22;23489;49.600;6.138;2023-01-16T07:01:26;2.50;99.90
37646;DHT22;23489;49.600;6.138;2023-01-16T07:03:52;2.40;99.90
37646;DHT22;23489;49.600;6.138;2023-01-16T07:06:18;2.40;99.90
37646;DHT22;23489;49.600;6.138;2023-01-16T07:08:44;2.40;99.90
37646;DHT22;23489;49.600;6.138;2023-01-16T07:11:10;2.40;99.90
37646;DHT22;23489;49.600;6.138;2023-01-16T07:13:35;2.40;99.90
37646;DHT22;23489;49.600;6.138;2023-01-16T07:16:01;2.40;99.90
37646;DHT22;23489;49.600;6.138;2023-01-16T07:18:45;2.40;99.90
37646;DHT22;23489;49.600;6.138;2023-01-16T07:21:30;2.50;99.90
37646;DHT22;23489;49.600;6.138;2023-01-16T07:24:19;2.50;99.90
37646;DHT22;23489;49.600;6.138;2023-01-16T07:26:49;2.50;99.90
37646;DHT22;23489;49.600;6.138;2023-01-16T07:29:15;2.50;99.90
37646;DHT22;23489;49.600;6.138;2023-01-16T07:31:41;2.50;99.90
37646;DHT22;23489;49.600;6.138;2023-01-16T07:34:06;2.50;99.90
37646;DHT22;23489;49.600;6.138;2023-01-16T07:36:32;2.50;99.90
37646;DHT22;23489;49.600;6.138;2023-01-16T07:38:58;2.60;99.90
37646;DHT22;23489;49.600;6.138;2023-01-16T07:41:23;2.60;99.90
37646;DHT22;23489;49.600;6.138;2023-01-16T07:43:50;2.70;99.90
37646;DHT22;23489;49.600;6.138;2023-01-16T07:46:15;2.70;99.90
37646;DHT22;23489;49.600;6.138;2023-01-16T07:48:41;2.70;99.90
37646;DHT22;23489;49.600;6.138;2023-01-16T07:51:07;2.80;99.90
37646;DHT22;23489;49.600;6.138;2023-01-16T07:53:32;2.90;99.90
37646;DHT22;23489;49.600;6.138;2023-01-16T07:56:00;2.90;99.90
37646;DHT22;23489;49.600;6.138;2023-01-16T07:58:27;3.00;99.90
37646;DHT22;23489;49.600;6.138;2023-01-16T08:00:54;3.00;99.90
37646;DHT22;23489;49.600;6.138;2023-01-16T08:03:20;3.10;99.90
37646;DHT22;23489;49.600;6.138;2023-01-16T08:05:46;3.10;99.90
37646;DHT22;23489;49.600;6.138;2023-01-16T08:08:13;3.10;99.90
37646;DHT22;23489;49.600;6.138;2023-01-16T08:10:39;3.30;99.90
37646;DHT22;23489;49.600;6.138;2023-01-16T08:13:05;3.30;99.90
37646;DHT22;23489;49.600;6.138;2023-01-16T08:15:31;3.30;99.90
37646;DHT22;23489;49.600;6.138;2023-01-16T08:17:57;3.30;99.90
37646;DHT22;23489;49.600;6.138;2023-01-16T08:20:23;3.30;99.90
37646;DHT22;23489;49.600;6.138;2023-01-16T08:22:51;3.30;99.90
37646;DHT22;23489;49.600;6.138;2023-01-16T08:25:21;3.30;99.90
37646;DHT22;23489;49.600;6.138;2023-01-16T08:27:47;3.40;99.90
37646;DHT22;23489;49.600;6.138;2023-01-16T08:30:14;3.40;99.90
37646;DHT22;23489;49.600;6.138;2023-01-16T08:32:40;3.40;99.90
37646;DHT22;23489;49.600;6.138;2023-01-16T08:35:07;3.40;99.90
37646;DHT22;23489;49.600;6.138;2023-01-16T08:37:33;3.40;99.90
37646;DHT22;23489;49.600;6.138;2023-01-16T08:39:58;3.40;99.90
37646;DHT22;23489;49.600;6.138;2023-01-16T08:42:24;3.50;99.90
37646;DHT22;23489;49.600;6.138;2023-01-16T08:45:09;3.50;99.90
37646;DHT22;23489;49.600;6.138;2023-01-16T08:47:54;3.50;99.90
37646;DHT22;23489;49.600;6.138;2023-01-16T08:50:38;3.60;99.90
37646;DHT22;23489;49.600;6.138;2023-01-16T08:53:23;3.60;99.90
37646;DHT22;23489;49.600;6.138;2023-01-16T08:55:49;3.60;99.90
37646;DHT22;23489;49.600;6.138;2023-01-16T08:58:15;3.70;99.90
37646;DHT22;23489;49.600;6.138;2023-01-16T09:00:41;3.70;99.90
37646;DHT22;23489;49.600;6.138;2023-01-16T09:03:06;3.70;99.90
37646;DHT22;23489;49.600;6.138;2023-01-16T09:05:32;3.70;99.90
37646;DHT22;23489;49.600;6.138;2023-01-16T09:07:57;3.80;99.90
37646;DHT22;23489;49.600;6.138;2023-01-16T09:10:24;3.80;99.90
37646;DHT22;23489;49.600;6.138;2023-01-16T09:12:50;3.80;99.90
37646;DHT22;23489;49.600;6.138;2023-01-16T09:15:34;3.90;99.90
37646;DHT22;23489;49.600;6.138;2023-01-16T09:18:00;3.90;99.90
37646;DHT22;23489;49.600;6.138;2023-01-16T09:20:26;4.00;99.90
37646;DHT22;23489;49.600;6.138;2023-01-16T09:22:59;4.00;99.90
37646;DHT22;23489;49.600;6.138;2023-01-16T09:25:27;4.00;99.90
37646;DHT22;23489;49.600;6.138;2023-01-16T09:27:53;4.10;99.90
37646;DHT22;23489;49.600;6.138;2023-01-16T09:30:18;4.10;99.90
37646;DHT22;23489;49.600;6.138;2023-01-16T09:32:45;4.20;99.90
37646;DHT22;23489;49.600;6.138;2023-01-16T09:35:12;4.20;99.90
37646;DHT22;23489;49.600;6.138;2023-01-16T09:37:37;4.20;99.90
37646;DHT22;23489;49.600;6.138;2023-01-16T09:40:04;4.30;99.90
37646;DHT22;23489;49.600;6.138;2023-01-16T09:42:38;4.30;99.90
37646;DHT22;23489;49.600;6.138;2023-01-16T09:45:28;4.40;99.90
37646;DHT22;23489;49.600;6.138;2023-01-16T09:47:58;4.40;99.90
37646;DHT22;23489;49.600;6.138;2023-01-16T09:50:39;4.40;99.90
37646;DHT22;23489;49.600;6.138;2023-01-16T09:53:15;4.40;99.90
37646;DHT22;23489;49.600;6.138;2023-01-16T09:56:02;4.50;99.90
37646;DHT22;23489;49.600;6.138;2023-01-16T09:59:12;4.50;99.90
37646;DHT22;23489;49.600;6.138;2023-01-16T10:01:44;4.50;99.90
37646;DHT22;23489;49.600;6.138;2023-01-16T10:04:19;4.50;99.90
37646;DHT22;23489;49.600;6.138;2023-01-16T10:09:38;4.70;99.90
37646;DHT22;23489;49.600;6.138;2023-01-16T10:12:09;4.70;99.90
37646;DHT22;23489;49.600;6.138;2023-01-16T10:14:58;4.80;99.90
37646;DHT22;23489;49.600;6.138;2023-01-16T10:26:27;4.60;99.90
37646;DHT22;23489;49.600;6.138;2023-01-16T10:29:06;4.60;99.90
37646;DHT22;23489;49.600;6.138;2023-01-16T10:31:49;4.50;99.90
37646;DHT22;23489;49.600;6.138;2023-01-16T10:34:25;4.50;99.90
37646;DHT22;23489;49.600;6.138;2023-01-16T10:36:55;4.40;99.90
37646;DHT22;23489;49.600;6.138;2023-01-16T10:39:29;4.30;99.90
37646;DHT22;23489;49.600;6.138;2023-01-16T10:42:00;4.20;99.90
37646;DHT22;23489;49.600;6.138;2023-01-16T10:47:52;4.00;99.90
37646;DHT22;23489;49.600;6.138;2023-01-16T10:50:36;4.00;99.90
37646;DHT22;23489;49.600;6.138;2023-01-16T10:53:04;4.00;99.90
37646;DHT22;23489;49.600;6.138;2023-01-16T10:55:32;4.00;99.90
37646;DHT22;23489;49.600;6.138;2023-01-16T10:58:05;4.00;99.90
37646;DHT22;23489;49.600;6.138;2023-01-16T11:00:34;4.10;99.90
37646;DHT22;23489;49.600;6.138;2023-01-16T11:05:47;4.20;99.90
37646;DHT22;23489;49.600;6.138;2023-01-16T11:08:17;4.20;99.90
37646;DHT22;23489;49.600;6.138;2023-01-16T11:10:48;4.30;99.90
37646;DHT22;23489;49.600;6.138;2023-01-16T11:13:20;4.30;99.90
37646;DHT22;23489;49.600;6.138;2023-01-16T11:16:15;4.30;99.90
37646;DHT22;23489;49.600;6.138;2023-01-16T11:19:24;4.30;99.90
37646;DHT22;23489;49.600;6.138;2023-01-16T11:21:55;4.40;99.90
37646;DHT22;23489;49.600;6.138;2023-01-16T11:24:24;4.40;99.90
37646;DHT22;23489;49.600;6.138;2023-01-16T11:26:55;4.40;99.90
37646;DHT22;23489;49.600;6.138;2023-01-16T11:29:26;4.50;99.90
37646;DHT22;23489;49.600;6.138;2023-01-16T11:31:58;4.50;99.90
37646;DHT22;23489;49.600;6.138;2023-01-16T11:34:26;4.50;99.90
37646;DHT22;23489;49.600;6.138;2023-01-16T11:36:57;4.60;99.90
37646;DHT22;23489;49.600;6.138;2023-01-16T11:39:27;4.60;99.90
37646;DHT22;23489;49.600;6.138;2023-01-16T11:41:56;4.60;99.90
37646;DHT22;23489;49.600;6.138;2023-01-16T11:44:33;4.60;99.90
37646;DHT22;23489;49.600;6.138;2023-01-16T11:47:22;4.60;99.90
37646;DHT22;23489;49.600;6.138;2023-01-16T11:49:51;4.60;99.90
37646;DHT22;23489;49.600;6.138;2023-01-16T11:52:19;4.60;99.90
37646;DHT22;23489;49.600;6.138;2023-01-16T11:54:55;4.60;99.90
37646;DHT22;23489;49.600;6.138;2023-01-16T11:58:08;4.70;99.90
37646;DHT22;23489;49.600;6.138;2023-01-16T12:00:53;4.70;99.90
37646;DHT22;23489;49.600;6.138;2023-01-16T12:09:03;4.80;99.90
37646;DHT22;23489;49.600;6.138;2023-01-16T12:14:09;4.90;99.90
37646;DHT22;23489;49.600;6.138;2023-01-16T12:19:43;5.00;99.90
37646;DHT22;23489;49.600;6.138;2023-01-16T12:28:32;4.90;99.90
37646;DHT22;23489;49.600;6.138;2023-01-16T12:42:12;4.80;99.90
37646;DHT22;23489;49.600;6.138;2023-01-16T12:51:14;4.70;99.90
37646;DHT22;23489;49.600;6.138;2023-01-16T12:59:13;4.50;99.90
37646;DHT22;23489;49.600;6.138;2023-01-16T13:01:43;4.40;99.90
37646;DHT22;23489;49.600;6.138;2023-01-16T13:06:51;4.30;99.90
37646;DHT22;23489;49.600;6.138;2023-01-16T13:09:34;4.30;99.90
37646;DHT22;23489;49.600;6.138;2023-01-16T13:15:01;4.40;99.90
37646;DHT22;23489;49.600;6.138;2023-01-16T13:17:43;4.50;99.90
37646;DHT22;23489;49.600;6.138;2023-01-16T13:20:12;4.60;99.90
37646;DHT22;23489;49.600;6.138;2023-01-16T13:23:10;4.70;99.90
37646;DHT22;23489;49.600;6.138;2023-01-16T13:25:42;4.60;99.90
37646;DHT22;23489;49.600;6.138;2023-01-16T13:30:40;4.50;99.90
37646;DHT22;23489;49.600;6.138;2023-01-16T13:33:16;4.50;99.90
37646;DHT22;23489;49.600;6.138;2023-01-16T13:38:45;4.40;99.90
37646;DHT22;23489;49.600;6.138;2023-01-16T13:46:44;4.30;99.90
37646;DHT22;23489;49.600;6.138;2023-01-16T13:49:19;4.30;99.90
37646;DHT22;23489;49.600;6.138;2023-01-16T13:51:47;4.20;99.90
37646;DHT22;23489;49.600;6.138;2023-01-16T13:54:18;4.20;99.90
37646;DHT22;23489;49.600;6.138;2023-01-16T13:56:56;4.20;99.90
37646;DHT22;23489;49.600;6.138;2023-01-16T14:01:59;4.10;99.90
37646;DHT22;23489;49.600;6.138;2023-01-16T14:04:29;4.10;99.90
37646;DHT22;23489;49.600;6.138;2023-01-16T14:07:10;4.00;99.90
37646;DHT22;23489;49.600;6.138;2023-01-16T14:12:43;3.90;99.90
37646;DHT22;23489;49.600;6.138;2023-01-16T14:15:20;3.90;99.90
37646;DHT22;23489;49.600;6.138;2023-01-16T14:18:18;3.90;99.90
37646;DHT22;23489;49.600;6.138;2023-01-16T14:23:19;3.80;99.90
37646;DHT22;23489;49.600;6.138;2023-01-16T14:26:06;3.90;99.90
37646;DHT22;23489;49.600;6.138;2023-01-16T14:28:33;4.00;99.90
37646;DHT22;23489;49.600;6.138;2023-01-16T14:31:00;4.10;99.90
37646;DHT22;23489;49.600;6.138;2023-01-16T14:33:26;4.10;99.90
37646;DHT22;23489;49.600;6.138;2023-01-16T14:35:55;4.10;99.90
37646;DHT22;23489;49.600;6.138;2023-01-16T14:38:24;4.10;99.90
37646;DHT22;23489;49.600;6.138;2023-01-16T14:40:55;4.00;99.90
37646;DHT22;23489;49.600;6.138;2023-01-16T14:46:53;3.90;99.90
37646;DHT22;23489;49.600;6.138;2023-01-16T14:50:03;3.90;99.90
37646;DHT22;23489;49.600;6.138;2023-01-16T14:58:35;3.90;99.90
37646;DHT22;23489;49.600;6.138;2023-01-16T15:01:02;3.90;99.90
37646;DHT22;23489;49.600;6.138;2023-01-16T15:03:59;3.90;99.90
37646;DHT22;23489;49.600;6.138;2023-01-16T15:06:33;3.90;99.90
37646;DHT22;23489;49.600;6.138;2023-01-16T15:08:59;3.90;99.90
37646;DHT22;23489;49.600;6.138;2023-01-16T15:11:28;3.90;99.90
37646;DHT22;23489;49.600;6.138;2023-01-16T15:14:16;3.80;99.90
37646;DHT22;23489;49.600;6.138;2023-01-16T15:22:45;3.50;99.90
37646;DHT22;23489;49.600;6.138;2023-01-16T15:25:22;3.40;99.90
37646;DHT22;23489;49.600;6.138;2023-01-16T15:27:58;3.40;99.90
37646;DHT22;23489;49.600;6.138;2023-01-16T15:30:27;3.40;99.90
37646;DHT22;23489;49.600;6.138;2023-01-16T15:32:58;3.40;99.90
37646;DHT22;23489;49.600;6.138;2023-01-16T15:35:45;3.50;99.90
37646;DHT22;23489;49.600;6.138;2023-01-16T15:38:19;3.50;99.90
37646;DHT22;23489;49.600;6.138;2023-01-16T15:40:50;3.50;99.90
37646;DHT22;23489;49.600;6.138;2023-01-16T15:43:16;3.60;99.90
37646;DHT22;23489;49.600;6.138;2023-01-16T15:46:17;3.60;99.90
37646;DHT22;23489;49.600;6.138;2023-01-16T15:51:51;3.60;99.90
37646;DHT22;23489;49.600;6.138;2023-01-16T15:54:18;3.50;99.90
37646;DHT22;23489;49.600;6.138;2023-01-16T15:56:45;3.50;99.90
37646;DHT22;23489;49.600;6.138;2023-01-16T15:59:27;3.40;99.90
37646;DHT22;23489;49.600;6.138;2023-01-16T16:01:54;3.40;99.90
37646;DHT22;23489;49.600;6.138;2023-01-16T16:04:33;3.40;99.90
37646;DHT22;23489;49.600;6.138;2023-01-16T16:06:59;3.30;99.90
37646;DHT22;23489;49.600;6.138;2023-01-16T16:09:26;3.30;99.90
37646;DHT22;23489;49.600;6.138;2023-01-16T16:11:52;3.30;99.90
37646;DHT22;23489;49.600;6.138;2023-01-16T16:14:27;3.30;99.90
37646;DHT22;23489;49.600;6.138;2023-01-16T16:17:31;3.30;99.90
37646;DHT22;23489;49.600;6.138;2023-01-16T16:25:35;3.20;99.90
37646;DHT22;23489;49.600;6.138;2023-01-16T16:28:04;3.20;99.90
37646;DHT22;23489;49.600;6.138;2023-01-16T16:30:31;3.20;99.90
37646;DHT22;23489;49.600;6.138;2023-01-16T16:32:56;3.10;99.90
37646;DHT22;23489;49.600;6.138;2023-01-16T16:35:33;3.10;99.90
37646;DHT22;23489;49.600;6.138;2023-01-16T16:38:01;3.10;99.90
37646;DHT22;23489;49.600;6.138;2023-01-16T16:40:27;3.10;99.90
37646;DHT22;23489;49.600;6.138;2023-01-16T16:42:57;3.00;99.90
37646;DHT22;23489;49.600;6.138;2023-01-16T16:45:31;3.00;99.90
37646;DHT22;23489;49.600;6.138;2023-01-16T16:48:19;3.00;99.90
37646;DHT22;23489;49.600;6.138;2023-01-16T16:50:45;3.00;99.90
37646;DHT22;23489;49.600;6.138;2023-01-16T16:53:13;3.00;99.90
37646;DHT22;23489;49.600;6.138;2023-01-16T16:55:45;3.00;99.90
37646;DHT22;23489;49.600;6.138;2023-01-16T16:58:17;3.10;99.90
37646;DHT22;23489;49.600;6.138;2023-01-16T17:00:44;3.10;99.90
37646;DHT22;23489;49.600;6.138;2023-01-16T17:03:13;3.10;99.90
37646;DHT22;23489;49.600;6.138;2023-01-16T17:05:40;3.10;99.90
37646;DHT22;23489;49.600;6.138;2023-01-16T17:08:06;3.10;99.90
37646;DHT22;23489;49.600;6.138;2023-01-16T17:10:32;3.20;99.90
37646;DHT22;23489;49.600;6.138;2023-01-16T17:12:57;3.20;99.90
37646;DHT22;23489;49.600;6.138;2023-01-16T17:15:23;3.20;99.90
37646;DHT22;23489;49.600;6.138;2023-01-16T17:17:50;3.20;99.90
37646;DHT22;23489;49.600;6.138;2023-01-16T17:20:24;3.30;99.90
37646;DHT22;23489;49.600;6.138;2023-01-16T17:22:50;3.30;99.90
37646;DHT22;23489;49.600;6.138;2023-01-16T17:25:16;3.30;99.90
37646;DHT22;23489;49.600;6.138;2023-01-16T17:27:53;3.30;99.90
37646;DHT22;23489;49.600;6.138;2023-01-16T17:30:20;3.30;99.90
37646;DHT22;23489;49.600;6.138;2023-01-16T17:32:55;3.30;99.90
37646;DHT22;23489;49.600;6.138;2023-01-16T17:35:21;3.30;99.90
37646;DHT22;23489;49.600;6.138;2023-01-16T17:37:47;3.30;99.90
37646;DHT22;23489;49.600;6.138;2023-01-16T17:40:13;3.30;99.90
37646;DHT22;23489;49.600;6.138;2023-01-16T17:42:38;3.30;99.90
37646;DHT22;23489;49.600;6.138;2023-01-16T17:45:30;3.20;99.90
37646;DHT22;23489;49.600;6.138;2023-01-16T17:48:14;3.20;99.90
37646;DHT22;23489;49.600;6.138;2023-01-16T17:50:41;3.20;99.90
37646;DHT22;23489;49.600;6.138;2023-01-16T17:53:11;3.10;99.90
37646;DHT22;23489;49.600;6.138;2023-01-16T17:55:37;3.10;99.90
37646;DHT22;23489;49.600;6.138;2023-01-16T17:58:25;3.10;99.90
37646;DHT22;23489;49.600;6.138;2023-01-16T18:01:04;3.20;99.90
37646;DHT22;23489;49.600;6.138;2023-01-16T18:03:32;3.10;99.90
37646;DHT22;23489;49.600;6.138;2023-01-16T18:06:03;3.10;99.90
37646;DHT22;23489;49.600;6.138;2023-01-16T18:08:30;3.10;99.90
37646;DHT22;23489;49.600;6.138;2023-01-16T18:10:57;3.10;99.90
37646;DHT22;23489;49.600;6.138;2023-01-16T18:13:24;3.10;99.90
37646;DHT22;23489;49.600;6.138;2023-01-16T18:16:14;3.10;99.90
37646;DHT22;23489;49.600;6.138;2023-01-16T18:18:58;3.10;99.90
37646;DHT22;23489;49.600;6.138;2023-01-16T18:21:24;3.10;99.90
37646;DHT22;23489;49.600;6.138;2023-01-16T18:24:08;3.10;99.90
37646;DHT22;23489;49.600;6.138;2023-01-16T18:26:34;3.10;99.90
37646;DHT22;23489;49.600;6.138;2023-01-16T18:28:59;3.10;99.90
37646;DHT22;23489;49.600;6.138;2023-01-16T18:31:25;3.10;99.90
37646;DHT22;23489;49.600;6.138;2023-01-16T18:33:51;3.00;99.90
37646;DHT22;23489;49.600;6.138;2023-01-16T18:36:20;3.10;99.90
37646;DHT22;23489;49.600;6.138;2023-01-16T18:38:47;3.10;99.90